Winnfield, Louisiana
Current Conditions -  °F | °C
As of 7:55 PM on Saturday 20 Dec 2014 (Local Time) from KIER Reporting Station
Clear Clear  
Wind Chill: 40°   Ceiling: Unl
Heat Index: 42°   Visibility: 7mi
Dew Point: 42°   Wind: 5mph
Humidity: 98%   Direction: 320°NW
Pressure: 30.21"   Gusts: NA
Location:  31.93°N, 92.64°W
Report Text: KIER 210155Z AUTO 32004KT 7SM CLR 06/06 A3021 RMK AO2 T00580055
Loading
Personal Weather Stations






























Interactive Weather Map New forecast layout! Learn more

10-Day Weather Forecast

Advertisements
Track Severe Weather on mobile